sensor_id;sensor_type;location;lat;lon;timestamp;P1;durP1;ratioP1;P2;durP2;ratioP2
59828;SDS011;45708;51.848;107.620;2022-11-25T00:04:19;1.60;;;1.17;;
59828;SDS011;45708;51.848;107.620;2022-11-25T00:09:21;1.30;;;1.23;;
59828;SDS011;45708;51.848;107.620;2022-11-25T00:14:22;2.83;;;1.50;;
59828;SDS011;45708;51.848;107.620;2022-11-25T00:19:23;3.60;;;0.97;;
59828;SDS011;45708;51.848;107.620;2022-11-25T00:24:24;2.23;;;1.47;;
59828;SDS011;45708;51.848;107.620;2022-11-25T00:29:25;8.80;;;3.33;;
59828;SDS011;45708;51.848;107.620;2022-11-25T00:34:26;1.10;;;1.10;;
59828;SDS011;45708;51.848;107.620;2022-11-25T00:39:27;2.83;;;2.67;;
59828;SDS011;45708;51.848;107.620;2022-11-25T00:44:29;7.27;;;3.97;;
59828;SDS011;45708;51.848;107.620;2022-11-25T00:49:31;4.90;;;3.00;;
59828;SDS011;45708;51.848;107.620;2022-11-25T00:54:32;2.33;;;2.23;;
59828;SDS011;45708;51.848;107.620;2022-11-25T00:59:34;1.77;;;1.17;;
59828;SDS011;45708;51.848;107.620;2022-11-25T01:04:35;3.80;;;3.50;;
59828;SDS011;45708;51.848;107.620;2022-11-25T01:09:38;1.90;;;1.80;;
59828;SDS011;45708;51.848;107.620;2022-11-25T01:14:38;4.03;;;1.97;;
59828;SDS011;45708;51.848;107.620;2022-11-25T01:19:39;3.23;;;1.97;;
59828;SDS011;45708;51.848;107.620;2022-11-25T01:24:41;5.27;;;3.43;;
59828;SDS011;45708;51.848;107.620;2022-11-25T01:29:42;6.37;;;4.00;;
59828;SDS011;45708;51.848;107.620;2022-11-25T01:34:43;2.97;;;2.27;;
59828;SDS011;45708;51.848;107.620;2022-11-25T01:39:44;3.17;;;2.33;;
59828;SDS011;45708;51.848;107.620;2022-11-25T01:45:06;13.47;;;4.43;;
59828;SDS011;45708;51.848;107.620;2022-11-25T01:50:24;1.27;;;1.23;;
59828;SDS011;45708;51.848;107.620;2022-11-25T01:55:28;1.43;;;1.13;;
59828;SDS011;45708;51.848;107.620;2022-11-25T02:00:33;5.23;;;4.20;;
59828;SDS011;45708;51.848;107.620;2022-11-25T02:05:48;8.43;;;3.77;;
59828;SDS011;45708;51.848;107.620;2022-11-25T02:11:10;9.13;;;4.60;;
59828;SDS011;45708;51.848;107.620;2022-11-25T02:16:14;3.03;;;2.83;;
59828;SDS011;45708;51.848;107.620;2022-11-25T02:21:19;2.87;;;2.40;;
59828;SDS011;45708;51.848;107.620;2022-11-25T02:31:34;2.17;;;1.67;;
59828;SDS011;45708;51.848;107.620;2022-11-25T02:36:35;7.23;;;1.77;;
59828;SDS011;45708;51.848;107.620;2022-11-25T02:41:38;3.87;;;3.10;;
59828;SDS011;45708;51.848;107.620;2022-11-25T02:46:41;3.83;;;2.60;;
59828;SDS011;45708;51.848;107.620;2022-11-25T02:51:43;5.83;;;3.67;;
59828;SDS011;45708;51.848;107.620;2022-11-25T02:56:44;7.57;;;2.20;;
59828;SDS011;45708;51.848;107.620;2022-11-25T03:01:45;5.40;;;2.60;;
59828;SDS011;45708;51.848;107.620;2022-11-25T03:06:46;0.20;;;0.20;;
59828;SDS011;45708;51.848;107.620;2022-11-25T03:11:47;2.73;;;1.23;;
59828;SDS011;45708;51.848;107.620;2022-11-25T03:16:48;0.80;;;0.80;;
59828;SDS011;45708;51.848;107.620;2022-11-25T03:21:49;5.80;;;1.63;;
59828;SDS011;45708;51.848;107.620;2022-11-25T03:26:50;1.23;;;1.13;;
59828;SDS011;45708;51.848;107.620;2022-11-25T03:31:51;1.60;;;0.97;;
59828;SDS011;45708;51.848;107.620;2022-11-25T03:36:52;1.17;;;1.00;;
59828;SDS011;45708;51.848;107.620;2022-11-25T03:41:53;0.87;;;0.70;;
59828;SDS011;45708;51.848;107.620;2022-11-25T03:46:54;2.47;;;1.27;;
59828;SDS011;45708;51.848;107.620;2022-11-25T03:51:55;0.93;;;0.67;;
59828;SDS011;45708;51.848;107.620;2022-11-25T03:56:56;0.97;;;0.80;;
59828;SDS011;45708;51.848;107.620;2022-11-25T04:01:57;2.20;;;1.00;;
59828;SDS011;45708;51.848;107.620;2022-11-25T04:06:58;0.50;;;0.30;;
59828;SDS011;45708;51.848;107.620;2022-11-25T04:11:59;0.90;;;0.90;;
59828;SDS011;45708;51.848;107.620;2022-11-25T04:17:00;1.47;;;1.37;;
59828;SDS011;45708;51.848;107.620;2022-11-25T04:22:01;3.67;;;1.47;;
59828;SDS011;45708;51.848;107.620;2022-11-25T04:27:02;4.03;;;2.80;;
59828;SDS011;45708;51.848;107.620;2022-11-25T04:32:03;0.80;;;0.80;;
59828;SDS011;45708;51.848;107.620;2022-11-25T04:37:04;1.07;;;0.97;;
59828;SDS011;45708;51.848;107.620;2022-11-25T04:42:05;2.13;;;1.67;;
59828;SDS011;45708;51.848;107.620;2022-11-25T04:47:07;2.33;;;2.20;;
59828;SDS011;45708;51.848;107.620;2022-11-25T04:52:08;3.73;;;3.43;;
59828;SDS011;45708;51.848;107.620;2022-11-25T04:57:12;1.60;;;1.50;;
59828;SDS011;45708;51.848;107.620;2022-11-25T05:07:16;1.67;;;1.53;;
59828;SDS011;45708;51.848;107.620;2022-11-25T05:12:20;1.30;;;0.60;;
59828;SDS011;45708;51.848;107.620;2022-11-25T05:17:24;0.83;;;0.80;;
59828;SDS011;45708;51.848;107.620;2022-11-25T05:22:29;1.37;;;1.07;;
59828;SDS011;45708;51.848;107.620;2022-11-25T05:27:31;2.13;;;1.57;;
59828;SDS011;45708;51.848;107.620;2022-11-25T05:32:32;1.93;;;0.73;;
59828;SDS011;45708;51.848;107.620;2022-11-25T05:37:33;3.10;;;0.63;;
59828;SDS011;45708;51.848;107.620;2022-11-25T05:42:34;0.83;;;0.83;;
59828;SDS011;45708;51.848;107.620;2022-11-25T05:47:36;2.17;;;0.87;;
59828;SDS011;45708;51.848;107.620;2022-11-25T05:52:37;1.93;;;1.67;;
59828;SDS011;45708;51.848;107.620;2022-11-25T05:57:38;1.60;;;1.50;;
59828;SDS011;45708;51.848;107.620;2022-11-25T06:02:39;1.47;;;0.60;;
59828;SDS011;45708;51.848;107.620;2022-11-25T06:07:40;8.33;;;1.43;;
59828;SDS011;45708;51.848;107.620;2022-11-25T06:12:41;0.80;;;0.80;;
59828;SDS011;45708;51.848;107.620;2022-11-25T06:17:41;2.03;;;1.10;;
59828;SDS011;45708;51.848;107.620;2022-11-25T06:22:42;1.30;;;1.10;;
59828;SDS011;45708;51.848;107.620;2022-11-25T06:27:43;1.30;;;0.60;;
59828;SDS011;45708;51.848;107.620;2022-11-25T06:32:44;6.33;;;1.87;;
59828;SDS011;45708;51.848;107.620;2022-11-25T06:37:45;1.40;;;1.30;;
59828;SDS011;45708;51.848;107.620;2022-11-25T06:42:46;0.50;;;0.50;;
59828;SDS011;45708;51.848;107.620;2022-11-25T06:47:47;2.63;;;1.03;;
59828;SDS011;45708;51.848;107.620;2022-11-25T06:52:48;2.07;;;1.57;;
59828;SDS011;45708;51.848;107.620;2022-11-25T06:57:49;1.60;;;0.80;;
59828;SDS011;45708;51.848;107.620;2022-11-25T07:02:50;1.03;;;0.97;;
59828;SDS011;45708;51.848;107.620;2022-11-25T07:07:51;1.53;;;1.43;;
59828;SDS011;45708;51.848;107.620;2022-11-25T07:12:52;2.53;;;2.33;;
59828;SDS011;45708;51.848;107.620;2022-11-25T07:17:53;2.50;;;1.17;;
59828;SDS011;45708;51.848;107.620;2022-11-25T07:22:54;0.83;;;0.50;;
59828;SDS011;45708;51.848;107.620;2022-11-25T07:27:54;1.70;;;0.63;;
59828;SDS011;45708;51.848;107.620;2022-11-25T07:32:56;1.03;;;0.60;;
59828;SDS011;45708;51.848;107.620;2022-11-25T07:37:57;1.23;;;0.70;;
59828;SDS011;45708;51.848;107.620;2022-11-25T07:42:58;1.80;;;1.23;;
59828;SDS011;45708;51.848;107.620;2022-11-25T07:47:58;0.80;;;0.80;;
59828;SDS011;45708;51.848;107.620;2022-11-25T07:52:59;1.50;;;0.90;;
59828;SDS011;45708;51.848;107.620;2022-11-25T07:58:01;13.20;;;3.30;;
59828;SDS011;45708;51.848;107.620;2022-11-25T08:03:02;0.73;;;0.73;;
59828;SDS011;45708;51.848;107.620;2022-11-25T08:08:03;1.60;;;0.67;;
59828;SDS011;45708;51.848;107.620;2022-11-25T08:13:04;1.13;;;1.03;;
59828;SDS011;45708;51.848;107.620;2022-11-25T08:18:05;0.47;;;0.47;;
59828;SDS011;45708;51.848;107.620;2022-11-25T08:23:06;0.80;;;0.80;;
59828;SDS011;45708;51.848;107.620;2022-11-25T08:28:06;27.43;;;2.73;;
59828;SDS011;45708;51.848;107.620;2022-11-25T08:33:08;0.20;;;0.20;;
59828;SDS011;45708;51.848;107.620;2022-11-25T08:38:10;0.80;;;0.80;;
59828;SDS011;45708;51.848;107.620;2022-11-25T08:43:12;0.30;;;0.30;;
59828;SDS011;45708;51.848;107.620;2022-11-25T08:48:13;2.20;;;1.17;;
59828;SDS011;45708;51.848;107.620;2022-11-25T08:53:16;1.80;;;1.70;;
59828;SDS011;45708;51.848;107.620;2022-11-25T08:58:18;2.23;;;1.23;;
59828;SDS011;45708;51.848;107.620;2022-11-25T09:03:19;2.03;;;1.93;;
59828;SDS011;45708;51.848;107.620;2022-11-25T09:08:20;2.20;;;1.17;;
59828;SDS011;45708;51.848;107.620;2022-11-25T09:13:21;0.50;;;0.50;;
59828;SDS011;45708;51.848;107.620;2022-11-25T09:18:22;2.73;;;2.53;;
59828;SDS011;45708;51.848;107.620;2022-11-25T09:23:23;4.43;;;1.87;;
59828;SDS011;45708;51.848;107.620;2022-11-25T09:28:24;1.53;;;1.43;;
59828;SDS011;45708;51.848;107.620;2022-11-25T09:33:26;8.47;;;2.37;;
59828;SDS011;45708;51.848;107.620;2022-11-25T09:38:27;4.00;;;3.70;;
59828;SDS011;45708;51.848;107.620;2022-11-25T09:54:19;4.23;;;3.50;;
59828;SDS011;45708;51.848;107.620;2022-11-25T10:05:31;8.60;;;3.37;;
59828;SDS011;45708;51.848;107.620;2022-11-25T10:16:15;18.67;;;8.73;;
59828;SDS011;45708;51.848;107.620;2022-11-25T10:21:38;22.30;;;14.57;;
59828;SDS011;45708;51.848;107.620;2022-11-25T10:26:41;51.27;;;22.37;;
59828;SDS011;45708;51.848;107.620;2022-11-25T10:31:44;22.97;;;12.90;;
59828;SDS011;45708;51.848;107.620;2022-11-25T10:36:45;28.40;;;11.63;;
59828;SDS011;45708;51.848;107.620;2022-11-25T10:41:57;79.47;;;31.13;;
59828;SDS011;45708;51.848;107.620;2022-11-25T10:57:48;53.00;;;23.20;;
59828;SDS011;45708;51.848;107.620;2022-11-25T11:02:49;63.57;;;29.70;;
59828;SDS011;45708;51.848;107.620;2022-11-25T11:08:06;42.87;;;21.60;;
59828;SDS011;45708;51.848;107.620;2022-11-25T11:23:49;77.67;;;32.37;;
59828;SDS011;45708;51.848;107.620;2022-11-25T11:29:04;57.40;;;24.53;;
59828;SDS011;45708;51.848;107.620;2022-11-25T12:00:57;80.77;;;32.73;;
59828;SDS011;45708;51.848;107.620;2022-11-25T12:06:14;127.37;;;52.43;;
59828;SDS011;45708;51.848;107.620;2022-11-25T12:11:19;101.63;;;35.47;;
59828;SDS011;45708;51.848;107.620;2022-11-25T12:26:50;38.70;;;19.67;;
59828;SDS011;45708;51.848;107.620;2022-11-25T12:31:57;20.77;;;12.17;;
59828;SDS011;45708;51.848;107.620;2022-11-25T12:37:11;31.83;;;12.57;;
59828;SDS011;45708;51.848;107.620;2022-11-25T12:42:19;42.50;;;18.88;;
59828;SDS011;45708;51.848;107.620;2022-11-25T12:47:24;39.80;;;13.47;;
59828;SDS011;45708;51.848;107.620;2022-11-25T13:03:38;55.17;;;24.63;;
59828;SDS011;45708;51.848;107.620;2022-11-25T13:19:46;38.57;;;15.53;;
59828;SDS011;45708;51.848;107.620;2022-11-25T13:24:47;25.57;;;12.40;;
59828;SDS011;45708;51.848;107.620;2022-11-25T13:29:53;39.03;;;16.10;;
59828;SDS011;45708;51.848;107.620;2022-11-25T13:40:37;17.87;;;7.07;;
59828;SDS011;45708;51.848;107.620;2022-11-25T13:45:41;44.78;;;17.10;;
59828;SDS011;45708;51.848;107.620;2022-11-25T13:50:44;32.67;;;14.83;;
59828;SDS011;45708;51.848;107.620;2022-11-25T13:55:45;9.27;;;6.93;;
59828;SDS011;45708;51.848;107.620;2022-11-25T14:00:48;11.07;;;5.43;;
59828;SDS011;45708;51.848;107.620;2022-11-25T14:06:01;19.93;;;9.53;;
59828;SDS011;45708;51.848;107.620;2022-11-25T14:16:57;8.90;;;5.70;;
59828;SDS011;45708;51.848;107.620;2022-11-25T14:27:14;13.07;;;11.73;;
59828;SDS011;45708;51.848;107.620;2022-11-25T14:37:32;62.20;;;22.23;;
59828;SDS011;45708;51.848;107.620;2022-11-25T14:42:35;49.67;;;17.60;;
59828;SDS011;45708;51.848;107.620;2022-11-25T14:47:39;79.47;;;28.50;;
59828;SDS011;45708;51.848;107.620;2022-11-25T14:52:40;39.30;;;18.73;;
59828;SDS011;45708;51.848;107.620;2022-11-25T14:57:43;59.33;;;26.30;;
59828;SDS011;45708;51.848;107.620;2022-11-25T15:02:52;17.50;;;9.40;;
59828;SDS011;45708;51.848;107.620;2022-11-25T15:07:58;14.03;;;8.07;;
59828;SDS011;45708;51.848;107.620;2022-11-25T15:18:20;21.00;;;11.73;;
59828;SDS011;45708;51.848;107.620;2022-11-25T15:23:29;88.97;;;32.03;;
59828;SDS011;45708;51.848;107.620;2022-11-25T15:28:34;48.47;;;18.13;;
59828;SDS011;45708;51.848;107.620;2022-11-25T15:33:36;23.57;;;10.60;;
59828;SDS011;45708;51.848;107.620;2022-11-25T15:38:41;17.43;;;7.60;;
59828;SDS011;45708;51.848;107.620;2022-11-25T15:43:44;84.93;;;32.67;;
59828;SDS011;45708;51.848;107.620;2022-11-25T15:48:48;14.27;;;7.33;;
59828;SDS011;45708;51.848;107.620;2022-11-25T15:53:53;30.27;;;9.70;;
59828;SDS011;45708;51.848;107.620;2022-11-25T15:58:57;8.70;;;7.00;;
59828;SDS011;45708;51.848;107.620;2022-11-25T16:04:08;21.10;;;12.13;;
59828;SDS011;45708;51.848;107.620;2022-11-25T16:09:17;116.97;;;38.58;;
59828;SDS011;45708;51.848;107.620;2022-11-25T16:19:27;106.97;;;38.33;;
59828;SDS011;45708;51.848;107.620;2022-11-25T16:24:36;48.90;;;14.83;;
59828;SDS011;45708;51.848;107.620;2022-11-25T16:29:46;65.80;;;18.75;;
59828;SDS011;45708;51.848;107.620;2022-11-25T16:34:51;93.90;;;31.90;;
59828;SDS011;45708;51.848;107.620;2022-11-25T16:39:54;53.57;;;19.50;;
59828;SDS011;45708;51.848;107.620;2022-11-25T16:44:55;69.40;;;24.17;;
59828;SDS011;45708;51.848;107.620;2022-11-25T16:49:56;60.37;;;24.87;;
59828;SDS011;45708;51.848;107.620;2022-11-25T16:54:57;69.33;;;26.47;;
59828;SDS011;45708;51.848;107.620;2022-11-25T16:59:58;75.03;;;29.23;;
59828;SDS011;45708;51.848;107.620;2022-11-25T17:05:13;86.77;;;30.37;;
59828;SDS011;45708;51.848;107.620;2022-11-25T17:10:17;28.47;;;17.50;;
59828;SDS011;45708;51.848;107.620;2022-11-25T17:15:20;85.10;;;27.93;;
59828;SDS011;45708;51.848;107.620;2022-11-25T17:20:26;44.00;;;20.50;;
59828;SDS011;45708;51.848;107.620;2022-11-25T17:25:27;120.47;;;43.93;;
59828;SDS011;45708;51.848;107.620;2022-11-25T17:30:28;44.60;;;11.00;;
59828;SDS011;45708;51.848;107.620;2022-11-25T17:35:30;133.73;;;45.33;;
59828;SDS011;45708;51.848;107.620;2022-11-25T17:40:30;19.60;;;7.40;;
59828;SDS011;45708;51.848;107.620;2022-11-25T17:45:31;42.53;;;15.53;;
59828;SDS011;45708;51.848;107.620;2022-11-25T17:50:32;23.80;;;9.87;;
59828;SDS011;45708;51.848;107.620;2022-11-25T17:55:34;65.83;;;25.07;;
59828;SDS011;45708;51.848;107.620;2022-11-25T18:00:36;30.30;;;12.60;;
59828;SDS011;45708;51.848;107.620;2022-11-25T18:05:41;22.40;;;7.33;;
59828;SDS011;45708;51.848;107.620;2022-11-25T18:10:41;54.27;;;21.47;;
59828;SDS011;45708;51.848;107.620;2022-11-25T18:15:46;39.07;;;12.13;;
59828;SDS011;45708;51.848;107.620;2022-11-25T18:20:47;29.03;;;12.43;;
59828;SDS011;45708;51.848;107.620;2022-11-25T18:25:48;25.93;;;11.47;;
59828;SDS011;45708;51.848;107.620;2022-11-25T18:30:49;30.90;;;14.10;;
59828;SDS011;45708;51.848;107.620;2022-11-25T18:35:51;37.97;;;10.03;;
59828;SDS011;45708;51.848;107.620;2022-11-25T18:40:52;25.53;;;12.83;;
59828;SDS011;45708;51.848;107.620;2022-11-25T18:45:54;23.47;;;13.60;;
59828;SDS011;45708;51.848;107.620;2022-11-25T18:50:55;39.57;;;16.43;;
59828;SDS011;45708;51.848;107.620;2022-11-25T18:55:55;31.10;;;13.93;;
59828;SDS011;45708;51.848;107.620;2022-11-25T19:01:00;23.40;;;11.23;;
59828;SDS011;45708;51.848;107.620;2022-11-25T19:06:03;32.50;;;16.43;;
59828;SDS011;45708;51.848;107.620;2022-11-25T19:11:04;38.37;;;15.67;;
59828;SDS011;45708;51.848;107.620;2022-11-25T19:16:11;24.80;;;8.77;;
59828;SDS011;45708;51.848;107.620;2022-11-25T19:21:15;11.43;;;4.80;;
59828;SDS011;45708;51.848;107.620;2022-11-25T19:26:18;34.17;;;15.83;;
59828;SDS011;45708;51.848;107.620;2022-11-25T19:31:26;18.73;;;8.83;;
59828;SDS011;45708;51.848;107.620;2022-11-25T19:36:31;22.30;;;10.90;;
59828;SDS011;45708;51.848;107.620;2022-11-25T19:41:31;20.50;;;10.80;;
59828;SDS011;45708;51.848;107.620;2022-11-25T19:46:32;1.37;;;0.97;;
59828;SDS011;45708;51.848;107.620;2022-11-25T19:51:33;12.43;;;7.00;;
59828;SDS011;45708;51.848;107.620;2022-11-25T19:56:34;5.60;;;4.00;;
59828;SDS011;45708;51.848;107.620;2022-11-25T20:01:39;7.80;;;5.27;;
59828;SDS011;45708;51.848;107.620;2022-11-25T20:11:43;4.93;;;3.57;;
59828;SDS011;45708;51.848;107.620;2022-11-25T20:16:44;11.43;;;3.83;;
59828;SDS011;45708;51.848;107.620;2022-11-25T20:21:45;12.97;;;6.10;;
59828;SDS011;45708;51.848;107.620;2022-11-25T20:26:46;21.10;;;8.20;;
59828;SDS011;45708;51.848;107.620;2022-11-25T20:31:47;13.27;;;7.97;;
59828;SDS011;45708;51.848;107.620;2022-11-25T20:36:48;3.93;;;2.03;;
59828;SDS011;45708;51.848;107.620;2022-11-25T20:41:49;8.50;;;3.80;;
59828;SDS011;45708;51.848;107.620;2022-11-25T20:46:51;2.53;;;0.97;;
59828;SDS011;45708;51.848;107.620;2022-11-25T20:51:52;11.50;;;5.40;;
59828;SDS011;45708;51.848;107.620;2022-11-25T20:56:53;10.07;;;5.63;;
59828;SDS011;45708;51.848;107.620;2022-11-25T21:01:55;16.33;;;6.20;;
59828;SDS011;45708;51.848;107.620;2022-11-25T21:06:56;13.43;;;6.13;;
59828;SDS011;45708;51.848;107.620;2022-11-25T21:11:57;11.93;;;6.50;;
59828;SDS011;45708;51.848;107.620;2022-11-25T21:16:58;15.07;;;5.70;;
59828;SDS011;45708;51.848;107.620;2022-11-25T21:22:00;3.33;;;2.17;;
59828;SDS011;45708;51.848;107.620;2022-11-25T21:27:03;1.73;;;1.63;;
59828;SDS011;45708;51.848;107.620;2022-11-25T21:32:16;8.30;;;4.10;;
59828;SDS011;45708;51.848;107.620;2022-11-25T21:37:25;12.03;;;6.90;;
59828;SDS011;45708;51.848;107.620;2022-11-25T21:42:30;19.52;;;9.10;;
59828;SDS011;45708;51.848;107.620;2022-11-25T21:47:32;13.57;;;6.53;;
59828;SDS011;45708;51.848;107.620;2022-11-25T21:52:33;7.00;;;3.57;;
59828;SDS011;45708;51.848;107.620;2022-11-25T21:57:34;25.00;;;9.57;;
59828;SDS011;45708;51.848;107.620;2022-11-25T22:02:35;18.47;;;7.67;;
59828;SDS011;45708;51.848;107.620;2022-11-25T22:07:36;6.63;;;4.50;;
59828;SDS011;45708;51.848;107.620;2022-11-25T22:12:39;12.70;;;6.27;;
59828;SDS011;45708;51.848;107.620;2022-11-25T22:17:42;7.87;;;3.33;;
59828;SDS011;45708;51.848;107.620;2022-11-25T22:22:44;1.17;;;1.17;;
59828;SDS011;45708;51.848;107.620;2022-11-25T22:27:45;7.67;;;4.33;;
59828;SDS011;45708;51.848;107.620;2022-11-25T22:32:48;14.50;;;6.97;;
59828;SDS011;45708;51.848;107.620;2022-11-25T22:38:00;19.43;;;5.47;;
59828;SDS011;45708;51.848;107.620;2022-11-25T22:43:02;3.43;;;1.70;;
59828;SDS011;45708;51.848;107.620;2022-11-25T22:48:03;11.20;;;5.27;;
59828;SDS011;45708;51.848;107.620;2022-11-25T22:53:10;13.73;;;5.60;;
59828;SDS011;45708;51.848;107.620;2022-11-25T22:58:16;20.70;;;8.67;;
59828;SDS011;45708;51.848;107.620;2022-11-25T23:03:18;6.63;;;3.60;;
59828;SDS011;45708;51.848;107.620;2022-11-25T23:08:24;21.03;;;4.50;;
59828;SDS011;45708;51.848;107.620;2022-11-25T23:13:26;4.90;;;1.63;;
59828;SDS011;45708;51.848;107.620;2022-11-25T23:18:32;0.67;;;0.67;;
59828;SDS011;45708;51.848;107.620;2022-11-25T23:23:36;10.53;;;3.57;;
59828;SDS011;45708;51.848;107.620;2022-11-25T23:28:38;16.63;;;5.30;;
59828;SDS011;45708;51.848;107.620;2022-11-25T23:33:43;12.13;;;7.10;;
59828;SDS011;45708;51.848;107.620;2022-11-25T23:38:51;17.40;;;6.70;;
59828;SDS011;45708;51.848;107.620;2022-11-25T23:43:55;8.68;;;4.93;;
59828;SDS011;45708;51.848;107.620;2022-11-25T23:49:02;13.10;;;5.30;;
59828;SDS011;45708;51.848;107.620;2022-11-25T23:54:07;17.77;;;7.40;;
59828;SDS011;45708;51.848;107.620;2022-11-25T23:59:13;12.32;;;6.53;;
